Flight Track Log - Related Links

Times and Time Zones

All times are in EDT time to prevent confusion due to time zone crossing. See the RAX1022 flight status page for this flight to view local times or setup timezone preferences in your user account.

Time Position Orientation Groundspeed Altitude Reporting Facility
EDT Latitude Longitude Course Direction KTS MPH feet Rate Location/Type
Fri 09:09:22 PM 41.6350 -83.8117 329° Northwest 123 142 3,500  Level Cleveland Center
Fri 09:10:29 PM 41.6828 -83.8197 353° North 191 220 4,000 234 Climbing Cleveland Center
Fri 09:11:30 PM 41.7350 -83.8222 358° North 189 217 4,000 -49 Level Cleveland Center
Fri 09:12:31 PM 41.7889 -83.8278 356° North 185 213 3,900 -50 Descending Cleveland Center
Fri 09:13:31 PM 41.8367 -83.8331 355° North 184 212 3,900  Level Cleveland Center
Fri 09:14:00 PM 41.8543 -84.0434 329° Northwest  Level FlightAware Approximate
Fri 09:14:32 PM 41.8886 -83.8439 351° North 184 212 3,900  Level Cleveland Center
Fri 09:15:33 PM 41.9406 -83.8522 353° North 182 209 3,900  Level Cleveland Center
Fri 09:16:34 PM 41.9903 -83.8575 355° North 182 209 3,900  Level Cleveland Center
Fri 09:17:35 PM 42.0425 -83.8603 358° North 186 214 3,900 49 Level Cleveland Center
Fri 09:18:36 PM 42.0925 -83.8544 North 184 212 4,000 49 Climbing Cleveland Center
Fri 09:19:37 PM 42.1447 -83.8514 North 184 212 4,000 -49 Level Cleveland Center
Fri 09:20:38 PM 42.1933 -83.8258 21° North 188 216 3,900  Descending Cleveland Center
Fri 09:21:39 PM 42.2442 -83.7978 22° Northeast 190 219 4,000 -49 Climbing Cleveland Center
Fri 09:22:40 PM 42.2950 -83.7722 20° North 188 216 3,800 -574 Descending Cleveland Center
Fri 09:23:34 PM 42.3458 -83.7494 18° North 219 252 2,900 -470 Descending Cleveland Center
Fri 09:24:35 PM 42.3964 -83.7239 20° North 193 222 2,900  Level Cleveland Center
Fri 09:25:36 PM 42.4453 -83.6953 23° Northeast 191 220 2,900  Level Cleveland Center
Fri 09:26:37 PM 42.4981 -83.6669 22° Northeast 188 216 2,900  Level Cleveland Center
Fri 09:27:38 PM 42.5464 -83.6553 10° North 187 215 2,900  Level Cleveland Center
Fri 09:28:38 PM 42.6006 -83.6494 North 185 213 2,900 50 Level Cleveland Center
Fri 09:29:39 PM 42.6389 -83.6231 27° Northeast 176 203 3,000  Climbing Cleveland Center
Fri 09:30:40 PM 42.6611 -83.5761 57° Northeast 137 158 2,900 -443 Descending Cleveland Center
Fri 09:31:41 PM 42.6625 -83.5169 88° East 142 163 2,100 -738 Descending Cleveland Center
Fri 09:32:42 PM 42.6639 -83.4633 88° East 141 162 1,400 -689 Descending Cleveland Center
Fri 09:34:00 PM 42.6500 -83.4167 36° Northeast  Level FlightAware Approximate

Login

Don't have an account? Register now (free) for customized features, flight alerts, and more!